createdAt,value
2022-08-21T00:00:50.238Z,78.23
2022-08-21T00:03:21.408Z,77.98
2022-08-21T00:05:55.250Z,77.83
2022-08-21T00:08:32.361Z,77.84
2022-08-21T00:11:23.262Z,77.91
2022-08-21T00:13:55.931Z,77.72
2022-08-21T00:16:34.657Z,77.86
2022-08-21T00:19:06.331Z,77.91
2022-08-21T00:21:39.960Z,78.04
2022-08-21T00:24:27.033Z,78.08
2022-08-21T00:27:19.394Z,77.68
2022-08-21T00:30:03.676Z,77.58
2022-08-21T00:32:43.058Z,77.57
2022-08-21T00:35:18.509Z,77.77
2022-08-21T00:37:48.461Z,77.74
2022-08-21T00:40:24.812Z,77.48
2022-08-21T00:42:54.008Z,77.72
2022-08-21T00:45:24.872Z,77.85
2022-08-21T00:47:56.467Z,77.80
2022-08-21T00:50:38.814Z,78.00
2022-08-21T00:53:12.040Z,78.07
2022-08-21T00:56:35.719Z,78.05
2022-08-21T01:03:12.749Z,78.08
2022-08-21T01:06:05.951Z,77.85
2022-08-21T01:08:55.590Z,78.01
2022-08-21T01:11:35.225Z,77.93
2022-08-21T01:14:08.259Z,77.46
2022-08-21T01:16:45.019Z,77.58
2022-08-21T01:19:19.727Z,77.30
2022-08-21T01:21:53.674Z,77.18
2022-08-21T01:24:24.273Z,77.30
2022-08-21T01:27:01.129Z,77.18
2022-08-21T01:29:43.817Z,77.01
2022-08-21T01:32:17.483Z,77.24
2022-08-21T01:34:49.304Z,77.05
2022-08-21T01:37:22.286Z,77.25
2022-08-21T01:39:52.575Z,77.47
2022-08-21T01:42:22.690Z,77.27
2022-08-21T01:44:56.314Z,77.30
2022-08-21T01:47:25.919Z,77.49
2022-08-21T01:49:56.157Z,77.25
2022-08-21T01:52:24.466Z,77.71
2022-08-21T01:54:55.830Z,77.84
2022-08-21T01:57:26.092Z,77.68
2022-08-21T01:59:54.951Z,77.64
2022-08-21T02:02:23.451Z,77.64
2022-08-21T02:04:51.751Z,77.55
2022-08-21T02:07:22.497Z,77.71
2022-08-21T02:09:50.864Z,77.91
2022-08-21T02:12:22.204Z,78.18
2022-08-21T02:14:54.183Z,78.41
2022-08-21T02:17:26.233Z,78.60
2022-08-21T02:19:54.642Z,78.38
2022-08-21T02:22:23.173Z,78.26
2022-08-21T02:24:54.956Z,78.15
2022-08-21T02:27:26.655Z,77.97
2022-08-21T02:29:59.836Z,78.01
2022-08-21T02:32:27.994Z,77.92
2022-08-21T02:34:59.590Z,78.00
2022-08-21T02:37:28.324Z,78.18
2022-08-21T02:39:56.895Z,78.31
2022-08-21T02:42:25.178Z,78.47
2022-08-21T02:45:45.791Z,78.66
2022-08-21T02:48:17.649Z,78.51
2022-08-21T02:50:57.907Z,78.98
2022-08-21T02:53:27.014Z,78.87
2022-08-21T02:55:57.744Z,78.87
2022-08-21T02:58:29.102Z,78.53
2022-08-21T03:00:59.441Z,78.08
2022-08-21T03:03:31.464Z,78.13
2022-08-21T03:06:00.067Z,78.69
2022-08-21T03:08:29.858Z,78.64
2022-08-21T03:11:06.547Z,78.90
2022-08-21T03:13:38.730Z,78.76
2022-08-21T03:16:21.825Z,78.81
2022-08-21T03:19:08.844Z,79.02
2022-08-21T03:21:38.498Z,79.20
2022-08-21T03:24:13.925Z,79.23
2022-08-21T03:26:53.751Z,78.93
2022-08-21T03:29:36.606Z,79.17
2022-08-21T03:32:07.470Z,79.45
2022-08-21T03:34:42.019Z,79.60
2022-08-21T03:37:29.765Z,79.76
2022-08-21T03:40:15.337Z,79.90
2022-08-21T03:42:52.870Z,79.90
2022-08-21T03:45:29.717Z,80.19
2022-08-21T03:48:05.260Z,80.38
2022-08-21T03:50:40.773Z,80.60
2022-08-21T03:53:16.454Z,80.57
2022-08-21T03:55:47.901Z,80.74
2022-08-21T03:58:19.862Z,80.80
2022-08-21T04:00:50.480Z,80.71
2022-08-21T04:03:21.110Z,80.56
2022-08-21T04:05:49.931Z,80.38
2022-08-21T04:08:20.861Z,80.59
2022-08-21T04:10:53.516Z,80.28
2022-08-21T04:13:21.994Z,80.30
2022-08-21T04:15:50.457Z,79.98
2022-08-21T04:18:22.419Z,80.17
2022-08-21T04:20:52.781Z,79.99
2022-08-21T04:23:23.702Z,79.88
2022-08-21T04:25:57.332Z,80.13
2022-08-21T04:28:31.241Z,80.23
2022-08-21T04:31:02.032Z,80.12
2022-08-21T04:33:30.418Z,79.77
2022-08-21T04:35:59.843Z,79.40
2022-08-21T04:38:36.675Z,79.50
2022-08-21T04:41:07.812Z,79.38
2022-08-21T04:43:37.073Z,79.35
2022-08-21T04:46:07.273Z,79.35
2022-08-21T04:48:42.788Z,79.42
2022-08-21T04:51:17.542Z,79.50
2022-08-21T04:53:53.183Z,79.37
2022-08-21T04:56:33.027Z,79.06
2022-08-21T04:59:06.349Z,79.00
2022-08-21T05:01:38.644Z,78.84
2022-08-21T05:04:12.311Z,79.18
2022-08-21T05:06:44.451Z,79.28
2022-08-21T05:09:17.017Z,79.16
2022-08-21T05:11:46.883Z,79.18
2022-08-21T05:14:17.163Z,79.16
2022-08-21T05:16:47.892Z,79.44
2022-08-21T05:19:19.844Z,79.16
2022-08-21T05:21:49.712Z,79.02
2022-08-21T05:24:18.990Z,78.89
2022-08-21T05:26:55.526Z,79.06
2022-08-21T05:29:33.967Z,79.23
2022-08-21T05:32:30.475Z,78.89
2022-08-21T05:35:22.950Z,78.63
2022-08-21T05:38:16.822Z,78.74
2022-08-21T05:40:51.665Z,78.66
2022-08-21T05:43:21.288Z,78.91
2022-08-21T05:45:49.820Z,78.81
2022-08-21T05:48:21.846Z,79.06
2022-08-21T05:51:18.640Z,78.97
2022-08-21T05:54:01.039Z,78.65
2022-08-21T05:56:31.618Z,78.46
2022-08-21T05:59:00.521Z,78.50
2022-08-21T06:01:28.897Z,78.44
2022-08-21T06:04:01.594Z,78.26
2022-08-21T06:06:31.234Z,78.58
2022-08-21T06:08:59.401Z,78.59
2022-08-21T06:11:29.104Z,78.76
2022-08-21T06:13:57.723Z,78.62
2022-08-21T06:16:26.910Z,78.51
2022-08-21T06:18:58.479Z,78.74
2022-08-21T06:21:31.408Z,78.39
2022-08-21T06:24:02.245Z,78.17
2022-08-21T06:26:31.132Z,78.58
2022-08-21T06:29:02.095Z,78.48
2022-08-21T06:31:30.618Z,78.30
2022-08-21T06:33:58.853Z,78.33
2022-08-21T06:36:28.312Z,77.91
2022-08-21T06:38:57.168Z,77.78
2022-08-21T06:41:28.724Z,78.00
2022-08-21T06:43:57.313Z,78.28
2022-08-21T06:46:28.430Z,78.33
2022-08-21T06:48:57.286Z,78.33
2022-08-21T06:51:53.177Z,77.86
2022-08-21T06:54:21.975Z,77.22
2022-08-21T06:57:34.758Z,77.54
2022-08-21T07:00:06.186Z,76.95
2022-08-21T07:02:49.679Z,77.13
2022-08-21T07:05:45.119Z,76.98
2022-08-21T07:08:13.324Z,77.26
2022-08-21T07:10:41.392Z,77.18
2022-08-21T07:16:40.708Z,77.04
2022-08-21T07:23:48.027Z,77.15
2022-08-21T07:29:11.949Z,77.39
2022-08-21T07:31:47.479Z,77.33
2022-08-21T07:34:26.116Z,77.29
2022-08-21T07:36:54.465Z,77.75
2022-08-21T07:39:26.528Z,77.65
2022-08-21T07:41:55.398Z,77.85
2022-08-21T07:44:25.017Z,77.51
2022-08-21T07:46:53.702Z,76.83
2022-08-21T07:49:24.451Z,77.15
2022-08-21T07:51:54.655Z,76.83
2022-08-21T07:54:33.558Z,77.02
2022-08-21T07:57:04.127Z,77.62
2022-08-21T07:59:32.532Z,77.58
2022-08-21T08:02:00.784Z,77.62
2022-08-21T08:04:29.080Z,77.99
2022-08-21T08:06:57.318Z,77.76
2022-08-21T08:09:25.986Z,77.84
2022-08-21T08:11:54.483Z,77.85
2022-08-21T08:14:26.537Z,77.87
2022-08-21T08:16:59.965Z,77.77
2022-08-21T08:19:28.336Z,78.06
2022-08-21T08:22:00.159Z,78.18
2022-08-21T08:24:28.675Z,78.38
2022-08-21T08:26:58.159Z,78.64
2022-08-21T08:29:27.459Z,78.69
2022-08-21T08:32:03.634Z,78.78
2022-08-21T08:34:32.440Z,78.19
2022-08-21T08:37:00.681Z,78.00
2022-08-21T08:39:32.259Z,78.12
2022-08-21T08:42:33.709Z,77.60
2022-08-21T08:45:12.626Z,77.51
2022-08-21T08:47:52.900Z,76.31
2022-08-21T08:50:27.145Z,76.13
2022-08-21T08:53:05.964Z,75.78
2022-08-21T08:55:51.310Z,75.57
2022-08-21T08:58:40.126Z,75.61
2022-08-21T09:01:25.026Z,75.27
2022-08-21T09:04:04.462Z,75.29
2022-08-21T09:07:03.353Z,75.81
2022-08-21T09:10:13.152Z,75.70
2022-08-21T09:13:00.595Z,76.03
2022-08-21T09:15:38.743Z,75.38
2022-08-21T09:18:37.060Z,75.49
2022-08-21T09:21:40.931Z,75.94
2022-08-21T09:24:51.412Z,75.84
2022-08-21T09:27:23.258Z,75.85
2022-08-21T09:29:55.602Z,75.86
2022-08-21T09:32:37.255Z,76.05
2022-08-21T09:35:18.822Z,75.73
2022-08-21T09:37:57.417Z,75.36
2022-08-21T09:40:44.500Z,75.10
2022-08-21T09:43:12.783Z,74.92
2022-08-21T09:45:43.052Z,75.08
2022-08-21T09:48:26.988Z,75.40
2022-08-21T09:51:25.044Z,75.13
2022-08-21T10:43:51.825Z,65.88
2022-08-21T10:48:15.392Z,66.38
2022-08-21T10:55:48.805Z,66.76
2022-08-21T10:59:33.249Z,65.94
2022-08-21T11:02:56.766Z,66.55
2022-08-21T11:15:47.219Z,66.82
2022-08-21T11:18:30.641Z,67.21
2022-08-21T11:21:22.532Z,67.32
2022-08-21T11:24:17.333Z,67.05
2022-08-21T11:27:00.680Z,66.81
2022-08-21T11:29:38.705Z,66.88
2022-08-21T11:32:22.914Z,66.33
2022-08-21T11:35:09.721Z,66.54
2022-08-21T11:38:17.352Z,66.16
2022-08-21T11:40:44.422Z,66.94
2022-08-21T11:43:39.619Z,66.92
2022-08-21T11:46:33.372Z,65.73
2022-08-21T11:49:23.592Z,65.60
2022-08-21T11:53:25.197Z,66.13
2022-08-21T11:56:00.749Z,66.63
2022-08-21T11:58:35.853Z,66.10
2022-08-21T12:01:17.392Z,65.78
2022-08-21T12:04:01.251Z,65.72
2022-08-21T12:06:34.555Z,65.66
2022-08-21T12:09:09.796Z,65.78
2022-08-21T12:12:22.161Z,65.80
2022-08-21T12:19:30.537Z,66.98
2022-08-21T12:22:05.370Z,66.88
2022-08-21T12:24:42.158Z,66.81
2022-08-21T12:27:32.348Z,66.38
2022-08-21T12:30:27.187Z,66.38
2022-08-21T12:33:04.898Z,66.86
2022-08-21T12:35:40.568Z,66.43
2022-08-21T12:38:20.223Z,66.15
2022-08-21T12:40:57.937Z,66.25
2022-08-21T12:43:44.643Z,65.82
2022-08-21T12:46:43.917Z,65.89
2022-08-21T12:49:26.768Z,65.75
2022-08-21T12:52:07.296Z,65.21
2022-08-21T12:54:41.828Z,65.45
2022-08-21T12:57:19.343Z,65.07
2022-08-21T12:59:53.723Z,64.77
2022-08-21T13:02:26.596Z,65.24
2022-08-21T13:04:58.134Z,65.34
2022-08-21T13:07:30.642Z,64.63
2022-08-21T13:10:17.260Z,64.26
2022-08-21T13:12:46.184Z,64.02
2022-08-21T13:15:33.747Z,64.19
2022-08-21T13:18:06.748Z,64.18
2022-08-21T13:20:39.231Z,64.09
2022-08-21T13:23:23.339Z,64.53
2022-08-21T13:25:52.142Z,64.15
2022-08-21T13:28:22.566Z,63.61
2022-08-21T13:30:53.916Z,62.63
2022-08-21T13:33:37.258Z,62.05
2022-08-21T13:36:29.463Z,61.49
2022-08-21T13:38:57.901Z,61.21
2022-08-21T13:41:32.486Z,61.10
2022-08-21T13:44:03.780Z,61.00
2022-08-21T13:46:35.130Z,60.92
2022-08-21T13:49:07.349Z,61.30
2022-08-21T13:51:38.113Z,61.71
2022-08-21T13:54:28.472Z,61.80
2022-08-21T13:56:57.284Z,61.82
2022-08-21T13:59:45.512Z,62.14
2022-08-21T14:02:25.179Z,62.25
2022-08-21T14:05:02.946Z,62.18
2022-08-21T14:07:39.241Z,62.60
2022-08-21T14:10:16.142Z,62.90
2022-08-21T14:12:52.870Z,63.04
2022-08-21T14:15:26.369Z,63.08
2022-08-21T14:18:09.410Z,62.92
2022-08-21T14:20:41.973Z,63.33
2022-08-21T14:23:10.534Z,63.70
2022-08-21T14:25:46.738Z,64.15
2022-08-21T14:28:21.729Z,64.28
2022-08-21T14:31:00.273Z,64.62
2022-08-21T14:33:33.854Z,64.85
2022-08-21T14:36:03.553Z,65.30
2022-08-21T14:38:35.086Z,65.53
2022-08-21T14:41:24.803Z,65.97
2022-08-21T14:44:06.216Z,66.27
2022-08-21T14:46:55.589Z,66.50
2022-08-21T14:49:28.565Z,66.49
2022-08-21T14:52:01.109Z,66.56
2022-08-21T14:54:34.648Z,66.91
2022-08-21T14:57:07.209Z,67.31
2022-08-21T14:59:36.781Z,67.44
2022-08-21T15:02:09.012Z,67.66
2022-08-21T15:04:39.383Z,67.91
2022-08-21T15:07:07.751Z,67.75
2022-08-21T15:09:38.492Z,67.66
2022-08-21T15:12:07.708Z,67.50
2022-08-21T15:14:42.693Z,67.71
2022-08-21T15:17:13.323Z,67.94
2022-08-21T15:19:44.263Z,68.08
2022-08-21T15:22:19.015Z,68.33
2022-08-21T15:24:54.145Z,68.39
2022-08-21T15:27:22.948Z,68.69
2022-08-21T15:29:54.533Z,68.72
2022-08-21T15:32:31.293Z,69.04
2022-08-21T15:35:08.364Z,69.30
2022-08-21T15:37:39.103Z,70.04
2022-08-21T15:40:10.996Z,70.65
2022-08-21T15:42:40.978Z,71.41
2022-08-21T15:45:11.018Z,71.68
2022-08-21T15:47:42.129Z,72.04
2022-08-21T15:50:14.984Z,72.15
2022-08-21T15:52:45.421Z,72.65
2022-08-21T15:55:14.118Z,72.89
2022-08-21T15:57:56.783Z,72.74
2022-08-21T16:00:33.049Z,72.86
2022-08-21T16:03:06.561Z,73.03
2022-08-21T16:05:38.366Z,72.78
2022-08-21T16:08:08.334Z,72.70
2022-08-21T16:10:40.365Z,72.42
2022-08-21T16:13:33.263Z,72.16
2022-08-21T16:16:04.051Z,72.08
2022-08-21T16:18:34.739Z,71.95
2022-08-21T16:21:04.732Z,71.84
2022-08-21T16:23:35.922Z,71.85
2022-08-21T16:26:18.487Z,71.70
2022-08-21T16:28:48.852Z,71.64
2022-08-21T16:31:17.439Z,71.42
2022-08-21T16:33:50.948Z,71.73
2022-08-21T16:36:22.659Z,72.08
2022-08-21T16:38:58.664Z,72.24
2022-08-21T16:41:32.691Z,72.43
2022-08-21T16:44:16.919Z,72.64
2022-08-21T16:46:49.482Z,72.82
2022-08-21T16:49:21.101Z,73.01
2022-08-21T16:51:57.710Z,73.19
2022-08-21T16:54:26.311Z,73.26
2022-08-21T16:56:59.821Z,73.30
2022-08-21T16:59:30.581Z,73.50
2022-08-21T17:01:59.389Z,73.65
2022-08-21T17:04:28.816Z,73.40
2022-08-21T17:06:59.682Z,73.54
2022-08-21T17:09:27.951Z,73.55
2022-08-21T17:11:56.434Z,73.48
2022-08-21T17:14:26.551Z,73.54
2022-08-21T17:16:56.028Z,73.38
2022-08-21T17:19:34.210Z,73.18
2022-08-21T17:22:09.692Z,73.12
2022-08-21T17:24:43.262Z,72.91
2022-08-21T17:27:13.161Z,72.77
2022-08-21T17:29:45.206Z,72.67
2022-08-21T17:32:19.001Z,72.57
2022-08-21T17:34:54.995Z,72.59
2022-08-21T17:37:29.336Z,72.56
2022-08-21T17:39:59.198Z,72.66
2022-08-21T17:42:30.242Z,72.65
2022-08-21T17:45:12.553Z,72.37
2022-08-21T17:47:44.629Z,72.07
2022-08-21T17:50:44.460Z,71.97
2022-08-21T17:53:27.797Z,71.58
2022-08-21T17:56:02.330Z,71.50
2022-08-21T17:58:42.477Z,71.32
2022-08-21T18:01:19.827Z,71.21
2022-08-21T18:03:49.461Z,70.75
2022-08-21T18:06:30.245Z,70.80
2022-08-21T18:09:01.358Z,71.01
2022-08-21T18:11:35.306Z,70.47
2022-08-21T18:14:08.072Z,70.69
2022-08-21T18:16:43.442Z,71.05
2022-08-21T18:19:30.146Z,71.05
2022-08-21T18:22:11.053Z,71.09
2022-08-21T18:24:40.526Z,71.13
2022-08-21T18:27:12.759Z,71.31
2022-08-21T18:29:47.098Z,71.15
2022-08-21T18:32:31.757Z,71.23
2022-08-21T18:35:43.921Z,71.53
2022-08-21T18:38:22.138Z,71.79
2022-08-21T18:41:10.102Z,71.66
2022-08-21T18:43:45.218Z,71.80
2022-08-21T18:46:24.454Z,71.94
2022-08-21T18:49:03.694Z,72.13
2022-08-21T18:51:50.438Z,72.43
2022-08-21T18:54:37.310Z,72.46
2022-08-21T18:57:15.938Z,72.81
2022-08-21T18:59:50.448Z,72.95
2022-08-21T19:02:27.937Z,72.99
2022-08-21T19:04:58.679Z,73.32
2022-08-21T19:07:42.531Z,73.38
2022-08-21T19:10:38.472Z,73.37
2022-08-21T19:13:21.314Z,73.19
2022-08-21T19:16:06.354Z,73.48
2022-08-21T19:18:44.042Z,73.32
2022-08-21T19:21:19.791Z,73.52
2022-08-21T19:23:52.738Z,73.38
2022-08-21T19:26:29.508Z,73.16
2022-08-21T19:29:05.398Z,73.41
2022-08-21T19:39:27.699Z,73.29
2022-08-21T19:41:59.542Z,73.15
2022-08-21T19:44:32.225Z,73.36
2022-08-21T19:47:11.159Z,73.20
2022-08-21T19:50:17.425Z,72.99
2022-08-21T19:52:51.364Z,72.74
2022-08-21T19:55:26.183Z,72.82
2022-08-21T19:57:58.033Z,72.78
2022-08-21T20:00:27.638Z,72.75
2022-08-21T20:03:02.187Z,72.68
2022-08-21T20:05:51.467Z,72.66
2022-08-21T20:09:08.603Z,72.58
2022-08-21T20:11:43.545Z,72.76
2022-08-21T20:14:19.907Z,72.59
2022-08-21T20:24:12.035Z,72.34
2022-08-21T20:27:00.759Z,72.39
2022-08-21T20:29:36.186Z,72.27
2022-08-21T20:32:30.865Z,71.89
2022-08-21T20:36:16.456Z,71.92
2022-08-21T20:39:03.612Z,71.85
2022-08-21T20:42:10.566Z,71.34
2022-08-21T20:44:46.552Z,71.67
2022-08-21T20:51:17.143Z,71.67
2022-08-21T20:54:40.018Z,71.69
2022-08-21T20:57:33.683Z,71.50
2022-08-21T21:10:29.450Z,71.74
2022-08-21T21:13:18.957Z,71.54
2022-08-21T21:16:33.937Z,72.06
2022-08-21T21:19:58.752Z,71.45
2022-08-21T21:22:46.697Z,71.75
2022-08-21T21:25:40.601Z,72.00
2022-08-21T21:28:43.103Z,72.41
2022-08-21T21:31:12.662Z,72.16
2022-08-21T21:37:45.433Z,72.38
2022-08-21T21:40:46.607Z,72.10
2022-08-21T21:44:21.242Z,71.88
2022-08-21T21:47:09.727Z,72.06
2022-08-21T21:49:54.763Z,72.33
2022-08-21T21:53:26.252Z,72.86
2022-08-21T21:56:09.087Z,72.62
2022-08-21T21:59:44.420Z,73.11
2022-08-21T22:02:37.292Z,73.02
2022-08-21T22:06:04.246Z,73.18
2022-08-21T22:08:55.496Z,73.02
2022-08-21T22:11:42.932Z,72.95
2022-08-21T22:14:28.359Z,72.97
2022-08-21T22:20:48.580Z,72.95
2022-08-21T22:24:06.228Z,73.11
2022-08-21T22:26:49.662Z,73.12
2022-08-21T22:29:25.711Z,73.24
2022-08-21T22:32:08.721Z,73.44
2022-08-21T22:34:42.148Z,73.82
2022-08-21T22:37:12.980Z,74.12
2022-08-21T22:40:46.983Z,74.27
2022-08-21T22:43:30.672Z,74.80
2022-08-21T22:46:40.172Z,75.06
2022-08-21T22:53:30.351Z,75.14
2022-08-21T23:38:33.391Z,74.46
2022-08-21T23:41:38.021Z,74.59
2022-08-21T23:44:31.420Z,74.84
2022-08-21T23:47:27.981Z,74.90
2022-08-21T23:53:41.779Z,74.83
2022-08-21T23:56:22.523Z,75.04
2022-08-21T23:59:42.161Z,75.14
